sensor_id;sensor_type;location;lat;lon;timestamp;temperature;humidity
6518;DHT22;3292;48.944;9.240;2022-11-09T00:01:14;10.20;99.90
6518;DHT22;3292;48.944;9.240;2022-11-09T00:03:40;10.10;99.90
6518;DHT22;3292;48.944;9.240;2022-11-09T00:06:07;10.10;99.90
6518;DHT22;3292;48.944;9.240;2022-11-09T00:08:35;10.00;99.90
6518;DHT22;3292;48.944;9.240;2022-11-09T00:11:03;10.00;99.90
6518;DHT22;3292;48.944;9.240;2022-11-09T00:13:30;10.00;99.90
6518;DHT22;3292;48.944;9.240;2022-11-09T00:16:02;10.00;99.90
6518;DHT22;3292;48.944;9.240;2022-11-09T00:18:29;10.00;99.90
6518;DHT22;3292;48.944;9.240;2022-11-09T00:20:55;10.00;99.90
6518;DHT22;3292;48.944;9.240;2022-11-09T00:23:22;10.00;99.90
6518;DHT22;3292;48.944;9.240;2022-11-09T00:25:49;10.10;99.90
6518;DHT22;3292;48.944;9.240;2022-11-09T00:28:16;10.10;99.90
6518;DHT22;3292;48.944;9.240;2022-11-09T00:30:43;10.00;99.90
6518;DHT22;3292;48.944;9.240;2022-11-09T00:33:11;9.90;99.90
6518;DHT22;3292;48.944;9.240;2022-11-09T00:35:38;9.90;99.90
6518;DHT22;3292;48.944;9.240;2022-11-09T00:38:05;9.80;99.90
6518;DHT22;3292;48.944;9.240;2022-11-09T00:40:31;9.80;99.90
6518;DHT22;3292;48.944;9.240;2022-11-09T00:42:58;9.80;99.90
6518;DHT22;3292;48.944;9.240;2022-11-09T00:45:25;9.80;99.90
6518;DHT22;3292;48.944;9.240;2022-11-09T00:47:52;9.80;99.90
6518;DHT22;3292;48.944;9.240;2022-11-09T00:50:20;9.90;99.90
6518;DHT22;3292;48.944;9.240;2022-11-09T00:52:47;9.90;99.90
6518;DHT22;3292;48.944;9.240;2022-11-09T00:55:14;10.00;99.90
6518;DHT22;3292;48.944;9.240;2022-11-09T00:57:40;10.10;99.90
6518;DHT22;3292;48.944;9.240;2022-11-09T01:00:08;10.10;99.90
6518;DHT22;3292;48.944;9.240;2022-11-09T01:02:35;10.20;99.90
6518;DHT22;3292;48.944;9.240;2022-11-09T01:05:03;10.20;99.90
6518;DHT22;3292;48.944;9.240;2022-11-09T01:07:31;10.20;99.90
6518;DHT22;3292;48.944;9.240;2022-11-09T01:09:58;10.10;99.90
6518;DHT22;3292;48.944;9.240;2022-11-09T01:12:25;10.20;99.90
6518;DHT22;3292;48.944;9.240;2022-11-09T01:14:51;10.20;99.90
6518;DHT22;3292;48.944;9.240;2022-11-09T01:17:18;10.30;99.90
6518;DHT22;3292;48.944;9.240;2022-11-09T01:19:45;10.30;99.90
6518;DHT22;3292;48.944;9.240;2022-11-09T01:22:12;10.30;99.90
6518;DHT22;3292;48.944;9.240;2022-11-09T01:24:40;10.30;99.90
6518;DHT22;3292;48.944;9.240;2022-11-09T01:27:07;10.30;99.90
6518;DHT22;3292;48.944;9.240;2022-11-09T01:29:34;10.20;99.90
6518;DHT22;3292;48.944;9.240;2022-11-09T01:32:02;10.20;99.90
6518;DHT22;3292;48.944;9.240;2022-11-09T01:34:29;10.20;99.90
6518;DHT22;3292;48.944;9.240;2022-11-09T01:36:56;10.10;99.90
6518;DHT22;3292;48.944;9.240;2022-11-09T01:39:23;10.10;99.90
6518;DHT22;3292;48.944;9.240;2022-11-09T01:41:51;10.10;99.90
6518;DHT22;3292;48.944;9.240;2022-11-09T01:44:19;10.10;99.90
6518;DHT22;3292;48.944;9.240;2022-11-09T01:46:50;10.10;99.90
6518;DHT22;3292;48.944;9.240;2022-11-09T01:49:27;10.10;99.90
6518;DHT22;3292;48.944;9.240;2022-11-09T01:51:59;10.20;99.90
6518;DHT22;3292;48.944;9.240;2022-11-09T01:54:31;10.20;99.90
6518;DHT22;3292;48.944;9.240;2022-11-09T01:57:04;10.20;99.90
6518;DHT22;3292;48.944;9.240;2022-11-09T01:59:35;10.30;99.90
6518;DHT22;3292;48.944;9.240;2022-11-09T02:02:04;10.20;99.90
6518;DHT22;3292;48.944;9.240;2022-11-09T02:04:34;10.30;99.90
6518;DHT22;3292;48.944;9.240;2022-11-09T02:07:02;10.30;99.90
6518;DHT22;3292;48.944;9.240;2022-11-09T02:09:37;10.20;99.90
6518;DHT22;3292;48.944;9.240;2022-11-09T02:12:07;10.20;99.90
6518;DHT22;3292;48.944;9.240;2022-11-09T02:14:35;10.20;99.90
6518;DHT22;3292;48.944;9.240;2022-11-09T02:17:04;10.20;99.90
6518;DHT22;3292;48.944;9.240;2022-11-09T02:19:31;10.20;99.90
6518;DHT22;3292;48.944;9.240;2022-11-09T02:21:59;10.20;99.90
6518;DHT22;3292;48.944;9.240;2022-11-09T02:24:26;10.20;99.90
6518;DHT22;3292;48.944;9.240;2022-11-09T02:26:53;10.20;99.90
6518;DHT22;3292;48.944;9.240;2022-11-09T02:29:27;10.20;99.90
6518;DHT22;3292;48.944;9.240;2022-11-09T02:31:59;10.20;99.90
6518;DHT22;3292;48.944;9.240;2022-11-09T02:34:27;10.30;99.90
6518;DHT22;3292;48.944;9.240;2022-11-09T02:36:53;10.40;99.90
6518;DHT22;3292;48.944;9.240;2022-11-09T02:39:24;10.40;99.90
6518;DHT22;3292;48.944;9.240;2022-11-09T02:41:54;10.50;99.90
6518;DHT22;3292;48.944;9.240;2022-11-09T02:44:22;10.50;99.90
6518;DHT22;3292;48.944;9.240;2022-11-09T02:46:50;10.50;99.90
6518;DHT22;3292;48.944;9.240;2022-11-09T02:49:17;10.50;99.90
6518;DHT22;3292;48.944;9.240;2022-11-09T02:51:44;10.50;99.90
6518;DHT22;3292;48.944;9.240;2022-11-09T02:54:11;10.50;99.90
6518;DHT22;3292;48.944;9.240;2022-11-09T02:56:39;10.50;99.90
6518;DHT22;3292;48.944;9.240;2022-11-09T02:59:06;10.40;99.90
6518;DHT22;3292;48.944;9.240;2022-11-09T03:01:32;10.40;99.90
6518;DHT22;3292;48.944;9.240;2022-11-09T03:03:59;10.40;99.90
6518;DHT22;3292;48.944;9.240;2022-11-09T03:06:26;10.30;99.90
6518;DHT22;3292;48.944;9.240;2022-11-09T03:08:59;10.30;99.90
6518;DHT22;3292;48.944;9.240;2022-11-09T03:11:26;10.30;99.90
6518;DHT22;3292;48.944;9.240;2022-11-09T03:13:55;10.30;99.90
6518;DHT22;3292;48.944;9.240;2022-11-09T03:16:22;10.30;99.90
6518;DHT22;3292;48.944;9.240;2022-11-09T03:18:49;10.20;99.90
6518;DHT22;3292;48.944;9.240;2022-11-09T03:21:16;10.20;99.90
6518;DHT22;3292;48.944;9.240;2022-11-09T03:23:43;10.20;99.90
6518;DHT22;3292;48.944;9.240;2022-11-09T03:26:10;10.20;99.90
6518;DHT22;3292;48.944;9.240;2022-11-09T03:28:37;10.20;99.90
6518;DHT22;3292;48.944;9.240;2022-11-09T03:31:05;10.20;99.90
6518;DHT22;3292;48.944;9.240;2022-11-09T03:33:32;10.20;99.90
6518;DHT22;3292;48.944;9.240;2022-11-09T03:36:03;10.20;99.90
6518;DHT22;3292;48.944;9.240;2022-11-09T03:38:30;10.10;99.90
6518;DHT22;3292;48.944;9.240;2022-11-09T03:40:58;10.10;99.90
6518;DHT22;3292;48.944;9.240;2022-11-09T03:43:26;10.10;99.90
6518;DHT22;3292;48.944;9.240;2022-11-09T03:45:53;10.10;99.90
6518;DHT22;3292;48.944;9.240;2022-11-09T03:48:21;10.10;99.90
6518;DHT22;3292;48.944;9.240;2022-11-09T03:50:48;10.10;99.90
6518;DHT22;3292;48.944;9.240;2022-11-09T03:53:15;10.10;99.90
6518;DHT22;3292;48.944;9.240;2022-11-09T03:55:41;10.10;99.90
6518;DHT22;3292;48.944;9.240;2022-11-09T03:58:10;10.20;99.90
6518;DHT22;3292;48.944;9.240;2022-11-09T04:00:37;10.10;99.90
6518;DHT22;3292;48.944;9.240;2022-11-09T04:03:04;10.10;99.90
6518;DHT22;3292;48.944;9.240;2022-11-09T04:05:32;10.00;99.90
6518;DHT22;3292;48.944;9.240;2022-11-09T04:07:59;10.00;99.90
6518;DHT22;3292;48.944;9.240;2022-11-09T04:10:26;9.90;99.90
6518;DHT22;3292;48.944;9.240;2022-11-09T04:12:53;9.90;99.90
6518;DHT22;3292;48.944;9.240;2022-11-09T04:15:21;9.90;99.90
6518;DHT22;3292;48.944;9.240;2022-11-09T04:17:55;9.90;99.90
6518;DHT22;3292;48.944;9.240;2022-11-09T04:20:22;9.90;99.90
6518;DHT22;3292;48.944;9.240;2022-11-09T04:22:54;9.90;99.90
6518;DHT22;3292;48.944;9.240;2022-11-09T04:25:22;9.90;99.90
6518;DHT22;3292;48.944;9.240;2022-11-09T04:27:53;9.80;99.90
6518;DHT22;3292;48.944;9.240;2022-11-09T04:30:20;9.90;99.90
6518;DHT22;3292;48.944;9.240;2022-11-09T04:32:47;9.90;99.90
6518;DHT22;3292;48.944;9.240;2022-11-09T04:35:14;9.90;99.90
6518;DHT22;3292;48.944;9.240;2022-11-09T04:37:41;9.90;99.90
6518;DHT22;3292;48.944;9.240;2022-11-09T04:40:10;9.90;99.90
6518;DHT22;3292;48.944;9.240;2022-11-09T04:42:37;9.90;99.90
6518;DHT22;3292;48.944;9.240;2022-11-09T04:45:05;9.90;99.90
6518;DHT22;3292;48.944;9.240;2022-11-09T04:47:31;9.90;99.90
6518;DHT22;3292;48.944;9.240;2022-11-09T04:49:58;9.90;99.90
6518;DHT22;3292;48.944;9.240;2022-11-09T04:52:25;9.90;99.90
6518;DHT22;3292;48.944;9.240;2022-11-09T04:54:52;9.90;99.90
6518;DHT22;3292;48.944;9.240;2022-11-09T04:57:20;9.80;99.90
6518;DHT22;3292;48.944;9.240;2022-11-09T04:59:47;9.90;99.90
6518;DHT22;3292;48.944;9.240;2022-11-09T05:02:13;9.90;99.90
6518;DHT22;3292;48.944;9.240;2022-11-09T05:04:40;9.80;99.90
6518;DHT22;3292;48.944;9.240;2022-11-09T05:07:07;9.80;99.90
6518;DHT22;3292;48.944;9.240;2022-11-09T05:09:34;9.80;99.90
6518;DHT22;3292;48.944;9.240;2022-11-09T05:12:01;9.80;99.90
6518;DHT22;3292;48.944;9.240;2022-11-09T05:14:29;9.80;99.90
6518;DHT22;3292;48.944;9.240;2022-11-09T05:16:56;9.80;99.90
6518;DHT22;3292;48.944;9.240;2022-11-09T05:19:22;9.80;99.90
6518;DHT22;3292;48.944;9.240;2022-11-09T05:21:49;9.80;99.90
6518;DHT22;3292;48.944;9.240;2022-11-09T05:24:16;9.80;99.90
6518;DHT22;3292;48.944;9.240;2022-11-09T05:26:42;9.70;99.90
6518;DHT22;3292;48.944;9.240;2022-11-09T05:29:10;9.70;99.90
6518;DHT22;3292;48.944;9.240;2022-11-09T05:31:39;9.80;99.90
6518;DHT22;3292;48.944;9.240;2022-11-09T05:34:09;9.80;99.90
6518;DHT22;3292;48.944;9.240;2022-11-09T05:36:37;9.90;99.90
6518;DHT22;3292;48.944;9.240;2022-11-09T05:39:04;9.90;99.90
6518;DHT22;3292;48.944;9.240;2022-11-09T05:41:31;9.90;99.90
6518;DHT22;3292;48.944;9.240;2022-11-09T05:43:58;9.90;99.90
6518;DHT22;3292;48.944;9.240;2022-11-09T05:46:24;9.90;99.90
6518;DHT22;3292;48.944;9.240;2022-11-09T05:48:52;10.00;99.90
6518;DHT22;3292;48.944;9.240;2022-11-09T05:51:19;10.00;99.90
6518;DHT22;3292;48.944;9.240;2022-11-09T05:53:46;10.00;99.90
6518;DHT22;3292;48.944;9.240;2022-11-09T05:56:14;10.10;99.90
6518;DHT22;3292;48.944;9.240;2022-11-09T05:58:41;10.00;99.90
6518;DHT22;3292;48.944;9.240;2022-11-09T06:01:10;10.10;99.90
6518;DHT22;3292;48.944;9.240;2022-11-09T06:03:37;10.10;99.90
6518;DHT22;3292;48.944;9.240;2022-11-09T06:06:06;10.10;99.90
6518;DHT22;3292;48.944;9.240;2022-11-09T06:08:33;10.10;99.90
6518;DHT22;3292;48.944;9.240;2022-11-09T06:11:02;10.20;99.90
6518;DHT22;3292;48.944;9.240;2022-11-09T06:13:29;10.20;99.90
6518;DHT22;3292;48.944;9.240;2022-11-09T06:15:58;10.20;99.90
6518;DHT22;3292;48.944;9.240;2022-11-09T06:18:26;10.20;99.90
6518;DHT22;3292;48.944;9.240;2022-11-09T06:20:54;10.20;99.90
6518;DHT22;3292;48.944;9.240;2022-11-09T06:23:23;10.30;99.90
6518;DHT22;3292;48.944;9.240;2022-11-09T06:25:51;10.30;99.90
6518;DHT22;3292;48.944;9.240;2022-11-09T06:28:19;10.40;99.90
6518;DHT22;3292;48.944;9.240;2022-11-09T06:30:46;10.40;99.90
6518;DHT22;3292;48.944;9.240;2022-11-09T06:33:12;10.40;99.90
6518;DHT22;3292;48.944;9.240;2022-11-09T06:35:39;10.40;99.90
6518;DHT22;3292;48.944;9.240;2022-11-09T06:38:08;10.40;99.90
6518;DHT22;3292;48.944;9.240;2022-11-09T06:40:37;10.40;99.90
6518;DHT22;3292;48.944;9.240;2022-11-09T06:43:04;10.40;99.90
6518;DHT22;3292;48.944;9.240;2022-11-09T06:45:31;10.40;99.90
6518;DHT22;3292;48.944;9.240;2022-11-09T06:48:00;10.50;99.90
6518;DHT22;3292;48.944;9.240;2022-11-09T06:50:29;10.50;99.90
6518;DHT22;3292;48.944;9.240;2022-11-09T06:52:57;10.50;99.90
6518;DHT22;3292;48.944;9.240;2022-11-09T06:55:24;10.50;99.90
6518;DHT22;3292;48.944;9.240;2022-11-09T06:57:52;10.50;99.90
6518;DHT22;3292;48.944;9.240;2022-11-09T07:00:19;10.50;99.90
6518;DHT22;3292;48.944;9.240;2022-11-09T07:02:46;10.50;99.90
6518;DHT22;3292;48.944;9.240;2022-11-09T07:05:13;10.50;99.90
6518;DHT22;3292;48.944;9.240;2022-11-09T07:07:40;10.40;99.90
6518;DHT22;3292;48.944;9.240;2022-11-09T07:10:07;10.40;99.90
6518;DHT22;3292;48.944;9.240;2022-11-09T07:12:35;10.40;99.90
6518;DHT22;3292;48.944;9.240;2022-11-09T07:15:04;10.30;99.90
6518;DHT22;3292;48.944;9.240;2022-11-09T07:20:48;10.30;99.90
6518;DHT22;3292;48.944;9.240;2022-11-09T07:23:15;10.30;99.90
6518;DHT22;3292;48.944;9.240;2022-11-09T07:25:42;10.30;99.90
6518;DHT22;3292;48.944;9.240;2022-11-09T07:28:10;10.40;99.90
6518;DHT22;3292;48.944;9.240;2022-11-09T07:30:38;10.40;99.90
6518;DHT22;3292;48.944;9.240;2022-11-09T07:33:12;10.50;99.90
6518;DHT22;3292;48.944;9.240;2022-11-09T07:35:40;10.50;99.90
6518;DHT22;3292;48.944;9.240;2022-11-09T07:38:07;10.60;99.90
6518;DHT22;3292;48.944;9.240;2022-11-09T07:41:01;10.40;99.90
6518;DHT22;3292;48.944;9.240;2022-11-09T07:43:28;10.40;99.90
6518;DHT22;3292;48.944;9.240;2022-11-09T07:45:57;10.40;99.90
6518;DHT22;3292;48.944;9.240;2022-11-09T07:48:24;10.40;99.90
6518;DHT22;3292;48.944;9.240;2022-11-09T07:50:50;10.40;99.90
6518;DHT22;3292;48.944;9.240;2022-11-09T07:53:17;10.40;99.90
6518;DHT22;3292;48.944;9.240;2022-11-09T07:55:45;10.40;99.90
6518;DHT22;3292;48.944;9.240;2022-11-09T07:58:14;10.40;99.90
6518;DHT22;3292;48.944;9.240;2022-11-09T08:00:41;10.40;99.90
6518;DHT22;3292;48.944;9.240;2022-11-09T08:03:10;10.40;99.90
6518;DHT22;3292;48.944;9.240;2022-11-09T08:05:37;10.40;99.90
6518;DHT22;3292;48.944;9.240;2022-11-09T08:08:06;10.50;99.90
6518;DHT22;3292;48.944;9.240;2022-11-09T08:10:34;10.50;99.90
6518;DHT22;3292;48.944;9.240;2022-11-09T08:13:04;10.50;99.90
6518;DHT22;3292;48.944;9.240;2022-11-09T08:15:35;10.50;99.90
6518;DHT22;3292;48.944;9.240;2022-11-09T08:18:06;10.50;99.90
6518;DHT22;3292;48.944;9.240;2022-11-09T08:20:34;10.50;99.90
6518;DHT22;3292;48.944;9.240;2022-11-09T08:23:01;10.60;99.90
6518;DHT22;3292;48.944;9.240;2022-11-09T08:25:28;10.60;99.90
6518;DHT22;3292;48.944;9.240;2022-11-09T08:27:55;10.60;99.90
6518;DHT22;3292;48.944;9.240;2022-11-09T08:30:22;10.60;99.90
6518;DHT22;3292;48.944;9.240;2022-11-09T08:32:50;10.60;99.90
6518;DHT22;3292;48.944;9.240;2022-11-09T08:35:18;10.70;99.90
6518;DHT22;3292;48.944;9.240;2022-11-09T08:37:48;10.80;99.90
6518;DHT22;3292;48.944;9.240;2022-11-09T08:40:17;10.80;99.90
6518;DHT22;3292;48.944;9.240;2022-11-09T08:42:44;10.80;99.90
6518;DHT22;3292;48.944;9.240;2022-11-09T08:45:12;10.80;99.90
6518;DHT22;3292;48.944;9.240;2022-11-09T08:47:40;10.80;99.90
6518;DHT22;3292;48.944;9.240;2022-11-09T08:50:08;10.90;99.90
6518;DHT22;3292;48.944;9.240;2022-11-09T08:52:35;10.90;99.90
6518;DHT22;3292;48.944;9.240;2022-11-09T08:55:04;10.90;99.90
6518;DHT22;3292;48.944;9.240;2022-11-09T08:57:31;10.90;99.90
6518;DHT22;3292;48.944;9.240;2022-11-09T08:59:58;11.00;99.90
6518;DHT22;3292;48.944;9.240;2022-11-09T09:02:25;11.00;99.90
6518;DHT22;3292;48.944;9.240;2022-11-09T09:04:52;11.10;99.90
6518;DHT22;3292;48.944;9.240;2022-11-09T09:07:19;11.10;99.90
6518;DHT22;3292;48.944;9.240;2022-11-09T09:09:46;11.10;99.90
6518;DHT22;3292;48.944;9.240;2022-11-09T09:12:14;11.20;99.90
6518;DHT22;3292;48.944;9.240;2022-11-09T09:14:41;11.20;99.90
6518;DHT22;3292;48.944;9.240;2022-11-09T09:17:08;11.30;99.90
6518;DHT22;3292;48.944;9.240;2022-11-09T09:19:34;11.30;99.90
6518;DHT22;3292;48.944;9.240;2022-11-09T09:22:01;11.30;99.90
6518;DHT22;3292;48.944;9.240;2022-11-09T09:24:28;11.40;99.90
6518;DHT22;3292;48.944;9.240;2022-11-09T09:26:55;11.40;99.90
6518;DHT22;3292;48.944;9.240;2022-11-09T09:29:23;11.40;99.90
6518;DHT22;3292;48.944;9.240;2022-11-09T09:31:50;11.40;99.90
6518;DHT22;3292;48.944;9.240;2022-11-09T09:34:17;11.50;99.90
6518;DHT22;3292;48.944;9.240;2022-11-09T09:36:44;11.50;99.90
6518;DHT22;3292;48.944;9.240;2022-11-09T09:39:10;11.60;99.90
6518;DHT22;3292;48.944;9.240;2022-11-09T09:41:40;11.70;99.90
6518;DHT22;3292;48.944;9.240;2022-11-09T09:44:21;11.80;99.90
6518;DHT22;3292;48.944;9.240;2022-11-09T09:46:54;11.80;99.90
6518;DHT22;3292;48.944;9.240;2022-11-09T09:49:26;11.90;99.90
6518;DHT22;3292;48.944;9.240;2022-11-09T09:51:57;11.90;99.90
6518;DHT22;3292;48.944;9.240;2022-11-09T09:54:29;12.00;99.90
6518;DHT22;3292;48.944;9.240;2022-11-09T09:56:59;12.00;99.90
6518;DHT22;3292;48.944;9.240;2022-11-09T09:59:42;12.10;99.90
6518;DHT22;3292;48.944;9.240;2022-11-09T10:02:19;12.30;99.90
6518;DHT22;3292;48.944;9.240;2022-11-09T10:04:46;12.40;99.90
6518;DHT22;3292;48.944;9.240;2022-11-09T10:07:17;12.50;99.90
6518;DHT22;3292;48.944;9.240;2022-11-09T10:10:09;12.50;99.90
6518;DHT22;3292;48.944;9.240;2022-11-09T10:12:53;12.70;99.90
6518;DHT22;3292;48.944;9.240;2022-11-09T10:15:26;12.80;99.90
6518;DHT22;3292;48.944;9.240;2022-11-09T10:18:07;12.80;99.90
6518;DHT22;3292;48.944;9.240;2022-11-09T10:20:48;12.90;99.90
6518;DHT22;3292;48.944;9.240;2022-11-09T10:23:30;12.90;99.90
6518;DHT22;3292;48.944;9.240;2022-11-09T10:26:03;13.00;99.90
6518;DHT22;3292;48.944;9.240;2022-11-09T10:28:31;13.00;99.90
6518;DHT22;3292;48.944;9.240;2022-11-09T10:31:01;13.10;99.90
6518;DHT22;3292;48.944;9.240;2022-11-09T10:33:30;13.20;99.90
6518;DHT22;3292;48.944;9.240;2022-11-09T10:36:01;13.20;99.90
6518;DHT22;3292;48.944;9.240;2022-11-09T10:38:36;13.20;99.90
6518;DHT22;3292;48.944;9.240;2022-11-09T10:41:12;13.20;99.90
6518;DHT22;3292;48.944;9.240;2022-11-09T10:43:41;13.10;99.90
6518;DHT22;3292;48.944;9.240;2022-11-09T10:46:08;13.20;99.90
6518;DHT22;3292;48.944;9.240;2022-11-09T10:48:38;13.20;99.90
6518;DHT22;3292;48.944;9.240;2022-11-09T10:51:24;13.20;99.90
6518;DHT22;3292;48.944;9.240;2022-11-09T10:54:13;13.10;99.90
6518;DHT22;3292;48.944;9.240;2022-11-09T10:56:43;13.20;99.90
6518;DHT22;3292;48.944;9.240;2022-11-09T10:59:39;13.10;99.90
6518;DHT22;3292;48.944;9.240;2022-11-09T11:02:41;13.10;99.90
6518;DHT22;3292;48.944;9.240;2022-11-09T11:05:30;13.20;99.90
6518;DHT22;3292;48.944;9.240;2022-11-09T11:07:58;13.20;99.90
6518;DHT22;3292;48.944;9.240;2022-11-09T11:10:37;13.30;99.90
6518;DHT22;3292;48.944;9.240;2022-11-09T11:13:20;13.30;99.90
6518;DHT22;3292;48.944;9.240;2022-11-09T11:15:47;13.40;99.90
6518;DHT22;3292;48.944;9.240;2022-11-09T11:18:18;13.40;99.90
6518;DHT22;3292;48.944;9.240;2022-11-09T11:20:48;13.50;99.90
6518;DHT22;3292;48.944;9.240;2022-11-09T11:23:29;13.60;99.90
6518;DHT22;3292;48.944;9.240;2022-11-09T11:26:16;13.70;99.90
6518;DHT22;3292;48.944;9.240;2022-11-09T11:28:49;13.70;99.90
6518;DHT22;3292;48.944;9.240;2022-11-09T11:31:19;13.70;99.90
6518;DHT22;3292;48.944;9.240;2022-11-09T11:33:46;13.80;99.90
6518;DHT22;3292;48.944;9.240;2022-11-09T11:36:20;13.80;99.90
6518;DHT22;3292;48.944;9.240;2022-11-09T11:38:56;13.80;99.90
6518;DHT22;3292;48.944;9.240;2022-11-09T11:41:40;13.80;99.90
6518;DHT22;3292;48.944;9.240;2022-11-09T11:44:17;13.90;99.90
6518;DHT22;3292;48.944;9.240;2022-11-09T11:46:47;14.00;99.90
6518;DHT22;3292;48.944;9.240;2022-11-09T11:49:38;14.10;99.90
6518;DHT22;3292;48.944;9.240;2022-11-09T11:52:16;14.10;99.90
6518;DHT22;3292;48.944;9.240;2022-11-09T11:54:57;14.00;99.90
6518;DHT22;3292;48.944;9.240;2022-11-09T11:57:33;14.00;99.90
6518;DHT22;3292;48.944;9.240;2022-11-09T12:00:08;14.10;99.90
6518;DHT22;3292;48.944;9.240;2022-11-09T12:06:00;14.10;99.90
6518;DHT22;3292;48.944;9.240;2022-11-09T12:08:39;14.10;99.90
6518;DHT22;3292;48.944;9.240;2022-11-09T12:11:14;14.10;99.90
6518;DHT22;3292;48.944;9.240;2022-11-09T12:13:57;14.10;99.90
6518;DHT22;3292;48.944;9.240;2022-11-09T12:16:32;14.10;99.90
6518;DHT22;3292;48.944;9.240;2022-11-09T12:22:00;14.20;99.90
6518;DHT22;3292;48.944;9.240;2022-11-09T12:24:36;14.20;99.90
6518;DHT22;3292;48.944;9.240;2022-11-09T12:27:26;14.20;99.90
6518;DHT22;3292;48.944;9.240;2022-11-09T12:30:01;14.20;99.90
6518;DHT22;3292;48.944;9.240;2022-11-09T12:32:35;14.20;99.90
6518;DHT22;3292;48.944;9.240;2022-11-09T12:35:17;14.20;99.90
6518;DHT22;3292;48.944;9.240;2022-11-09T12:37:49;14.20;99.90
6518;DHT22;3292;48.944;9.240;2022-11-09T12:40:23;14.20;99.90
6518;DHT22;3292;48.944;9.240;2022-11-09T12:42:55;14.30;99.90
6518;DHT22;3292;48.944;9.240;2022-11-09T12:45:28;14.30;99.90
6518;DHT22;3292;48.944;9.240;2022-11-09T12:47:59;14.30;99.90
6518;DHT22;3292;48.944;9.240;2022-11-09T12:50:27;14.30;99.90
6518;DHT22;3292;48.944;9.240;2022-11-09T12:52:55;14.30;99.90
6518;DHT22;3292;48.944;9.240;2022-11-09T12:55:27;14.30;99.90
6518;DHT22;3292;48.944;9.240;2022-11-09T12:57:55;14.30;99.90
6518;DHT22;3292;48.944;9.240;2022-11-09T13:00:45;14.30;99.90
6518;DHT22;3292;48.944;9.240;2022-11-09T13:03:19;14.30;99.90
6518;DHT22;3292;48.944;9.240;2022-11-09T13:05:47;14.30;99.90
6518;DHT22;3292;48.944;9.240;2022-11-09T13:08:17;14.30;99.90
6518;DHT22;3292;48.944;9.240;2022-11-09T13:11:06;14.30;99.90
6518;DHT22;3292;48.944;9.240;2022-11-09T13:13:34;14.30;99.90
6518;DHT22;3292;48.944;9.240;2022-11-09T13:16:08;14.30;99.90
6518;DHT22;3292;48.944;9.240;2022-11-09T13:18:50;14.40;99.90
6518;DHT22;3292;48.944;9.240;2022-11-09T13:24:49;14.30;99.90
6518;DHT22;3292;48.944;9.240;2022-11-09T13:27:39;14.30;99.90
6518;DHT22;3292;48.944;9.240;2022-11-09T13:30:35;14.40;99.90
6518;DHT22;3292;48.944;9.240;2022-11-09T13:33:21;14.30;99.90
6518;DHT22;3292;48.944;9.240;2022-11-09T13:35:57;14.40;99.90
6518;DHT22;3292;48.944;9.240;2022-11-09T13:38:26;14.40;99.90
6518;DHT22;3292;48.944;9.240;2022-11-09T13:40:54;14.40;99.90
6518;DHT22;3292;48.944;9.240;2022-11-09T13:43:25;14.40;99.90
6518;DHT22;3292;48.944;9.240;2022-11-09T13:45:54;14.40;99.90
6518;DHT22;3292;48.944;9.240;2022-11-09T13:48:40;14.40;99.90
6518;DHT22;3292;48.944;9.240;2022-11-09T13:51:09;14.40;99.90
6518;DHT22;3292;48.944;9.240;2022-11-09T13:53:55;14.40;99.90
6518;DHT22;3292;48.944;9.240;2022-11-09T13:56:32;14.40;99.90
6518;DHT22;3292;48.944;9.240;2022-11-09T13:59:08;14.40;99.90
6518;DHT22;3292;48.944;9.240;2022-11-09T14:01:45;14.40;99.90
6518;DHT22;3292;48.944;9.240;2022-11-09T14:04:24;14.40;99.90
6518;DHT22;3292;48.944;9.240;2022-11-09T14:06:59;14.40;99.90
6518;DHT22;3292;48.944;9.240;2022-11-09T14:09:27;14.40;99.90
6518;DHT22;3292;48.944;9.240;2022-11-09T14:12:20;14.40;99.90
6518;DHT22;3292;48.944;9.240;2022-11-09T14:15:07;14.40;99.90
6518;DHT22;3292;48.944;9.240;2022-11-09T14:17:40;14.40;99.90
6518;DHT22;3292;48.944;9.240;2022-11-09T14:20:17;14.40;99.90
6518;DHT22;3292;48.944;9.240;2022-11-09T14:22:50;14.40;99.90
6518;DHT22;3292;48.944;9.240;2022-11-09T14:25:18;14.40;99.90
6518;DHT22;3292;48.944;9.240;2022-11-09T14:27:47;14.40;99.90
6518;DHT22;3292;48.944;9.240;2022-11-09T14:30:20;14.30;99.90
6518;DHT22;3292;48.944;9.240;2022-11-09T14:32:49;14.30;99.90
6518;DHT22;3292;48.944;9.240;2022-11-09T14:35:22;14.30;99.90
6518;DHT22;3292;48.944;9.240;2022-11-09T14:37:50;14.30;99.90
6518;DHT22;3292;48.944;9.240;2022-11-09T14:40:19;14.20;99.90
6518;DHT22;3292;48.944;9.240;2022-11-09T14:42:48;14.20;99.90
6518;DHT22;3292;48.944;9.240;2022-11-09T14:45:21;14.20;99.90
6518;DHT22;3292;48.944;9.240;2022-11-09T14:47:51;14.20;99.90
6518;DHT22;3292;48.944;9.240;2022-11-09T14:50:22;14.10;99.90
6518;DHT22;3292;48.944;9.240;2022-11-09T14:52:53;14.10;99.90
6518;DHT22;3292;48.944;9.240;2022-11-09T14:55:24;14.10;99.90
6518;DHT22;3292;48.944;9.240;2022-11-09T14:57:54;14.10;99.90
6518;DHT22;3292;48.944;9.240;2022-11-09T15:00:30;14.10;99.90
6518;DHT22;3292;48.944;9.240;2022-11-09T15:02:59;14.00;99.90
6518;DHT22;3292;48.944;9.240;2022-11-09T15:05:30;14.00;99.90
6518;DHT22;3292;48.944;9.240;2022-11-09T15:08:15;14.00;99.90
6518;DHT22;3292;48.944;9.240;2022-11-09T15:10:54;14.00;99.90
6518;DHT22;3292;48.944;9.240;2022-11-09T15:13:29;14.00;99.90
6518;DHT22;3292;48.944;9.240;2022-11-09T15:15:58;13.90;99.90
6518;DHT22;3292;48.944;9.240;2022-11-09T15:18:27;13.90;99.90
6518;DHT22;3292;48.944;9.240;2022-11-09T15:21:31;13.80;99.90
6518;DHT22;3292;48.944;9.240;2022-11-09T15:24:04;13.80;99.90
6518;DHT22;3292;48.944;9.240;2022-11-09T15:26:37;13.80;99.90
6518;DHT22;3292;48.944;9.240;2022-11-09T15:29:27;13.80;99.90
6518;DHT22;3292;48.944;9.240;2022-11-09T15:31:59;13.80;99.90
6518;DHT22;3292;48.944;9.240;2022-11-09T15:34:35;13.90;99.90
6518;DHT22;3292;48.944;9.240;2022-11-09T15:37:16;13.90;99.90
6518;DHT22;3292;48.944;9.240;2022-11-09T15:39:44;13.80;99.90
6518;DHT22;3292;48.944;9.240;2022-11-09T15:42:14;13.70;99.90
6518;DHT22;3292;48.944;9.240;2022-11-09T15:44:41;13.70;99.90
6518;DHT22;3292;48.944;9.240;2022-11-09T15:47:22;13.70;99.90
6518;DHT22;3292;48.944;9.240;2022-11-09T15:49:51;13.70;99.90
6518;DHT22;3292;48.944;9.240;2022-11-09T15:52:20;13.60;99.90
6518;DHT22;3292;48.944;9.240;2022-11-09T15:54:48;13.50;99.90
6518;DHT22;3292;48.944;9.240;2022-11-09T15:57:17;13.50;99.90
6518;DHT22;3292;48.944;9.240;2022-11-09T15:59:47;13.50;99.90
6518;DHT22;3292;48.944;9.240;2022-11-09T16:02:27;13.40;99.90
6518;DHT22;3292;48.944;9.240;2022-11-09T16:04:55;13.40;99.90
6518;DHT22;3292;48.944;9.240;2022-11-09T16:07:23;13.30;99.90
6518;DHT22;3292;48.944;9.240;2022-11-09T16:09:50;13.30;99.90
6518;DHT22;3292;48.944;9.240;2022-11-09T16:12:17;13.30;99.90
6518;DHT22;3292;48.944;9.240;2022-11-09T16:14:44;13.30;99.90
6518;DHT22;3292;48.944;9.240;2022-11-09T16:17:11;13.20;99.90
6518;DHT22;3292;48.944;9.240;2022-11-09T16:19:41;13.20;99.90
6518;DHT22;3292;48.944;9.240;2022-11-09T16:22:08;13.20;99.90
6518;DHT22;3292;48.944;9.240;2022-11-09T16:24:36;13.20;99.90
6518;DHT22;3292;48.944;9.240;2022-11-09T16:27:05;13.10;99.90
6518;DHT22;3292;48.944;9.240;2022-11-09T16:29:33;13.10;99.90
6518;DHT22;3292;48.944;9.240;2022-11-09T16:31:59;13.10;99.90
6518;DHT22;3292;48.944;9.240;2022-11-09T16:34:26;13.10;99.90
6518;DHT22;3292;48.944;9.240;2022-11-09T16:36:54;13.00;99.90
6518;DHT22;3292;48.944;9.240;2022-11-09T16:39:21;13.00;99.90